Time;durP1;ratioP1;P1;durP2;ratioP2;P2;SDS_P1;SDS_P2;PMS_P1;PMS_P2;Temp;Humidity;BMP_temperature;BMP_pressure;BME280_temperature;BME280_humidity;BME280_pressure;Samples;Min_cycle;Max_cycle;Signal;HPM_P1;HPM_P2
2022/10/02 00:02:21;;;;;;;0.77;0.73;;;;;;;17.55;100.00;97339.38;5100342;27;20070;-76
2022/10/02 00:04:52;;;;;;;0.30;0.30;;;;;;;17.48;100.00;97340.91;5135210;27;20057;-77
2022/10/02 00:07:20;;;;;;;0.40;0.30;;;;;;;17.47;100.00;97346.47;5116876;27;20019;-76
2022/10/02 00:09:49;;;;;;;0.25;0.25;;;;;;;17.42;100.00;97348.72;5099678;27;20042;-77
2022/10/02 00:12:18;;;;;;;0.77;0.63;;;;;;;17.28;100.00;97339.22;5116773;27;20114;-77
2022/10/02 00:14:45;;;;;;;1.38;0.40;;;;;;;17.25;100.00;97340.34;5099763;27;20047;-77
2022/10/02 00:17:23;;;;;;;0.25;0.13;;;;;;;17.18;100.00;97338.34;5099290;27;20019;-77
2022/10/02 00:19:54;;;;;;;0.20;0.20;;;;;;;17.13;100.00;97341.47;5116494;27;20147;-77
2022/10/02 00:22:29;;;;;;;0.55;0.45;;;;;;;17.12;100.00;97341.59;5116425;27;20054;-77
2022/10/02 00:25:28;;;;;;;0.22;0.22;;;;;;;17.11;100.00;97339.88;5099361;27;20125;-77
2022/10/02 00:28:29;;;;;;;0.70;0.30;;;;;;;17.06;100.00;97334.06;5116745;27;20027;-77
2022/10/02 00:30:54;;;;;;;0.17;0.17;;;;;;;17.07;100.00;97330.38;5118268;27;20051;-77
2022/10/02 00:33:42;;;;;;;0.98;0.50;;;;;;;17.03;100.00;97331.63;5133217;27;20035;-77
2022/10/02 00:36:20;;;;;;;0.30;0.30;;;;;;;17.06;100.00;97343.03;5116182;27;20394;-75
2022/10/02 00:38:54;;;;;;;0.20;0.15;;;;;;;17.07;100.00;97346.59;5116359;27;20027;-77
2022/10/02 00:41:38;;;;;;;0.50;0.50;;;;;;;16.91;100.00;97347.13;5134334;27;20055;-76
2022/10/02 00:44:16;;;;;;;0.52;0.30;;;;;;;16.80;100.00;97339.97;5134327;27;20031;-76
2022/10/02 00:46:56;;;;;;;0.15;0.15;;;;;;;16.69;100.00;97341.94;5116142;27;20119;-77
2022/10/02 00:49:37;;;;;;;0.10;0.10;;;;;;;16.56;100.00;97334.09;5134278;27;20466;-74
2022/10/02 00:52:32;;;;;;;1.65;0.77;;;;;;;16.45;100.00;97344.97;5115973;27;20042;-75
2022/10/02 00:55:10;;;;;;;0.82;0.68;;;;;;;16.44;100.00;97345.09;5116036;27;20466;-76
2022/10/02 00:57:50;;;;;;;0.22;0.22;;;;;;;16.34;100.00;97336.94;5134404;27;20027;-75
2022/10/02 01:00:19;;;;;;;0.75;0.75;;;;;;;16.34;100.00;97352.28;5132594;27;20062;-76
2022/10/02 01:02:58;;;;;;;1.00;0.82;;;;;;;16.25;100.00;97345.84;5098784;27;20121;-76
2022/10/02 01:05:26;;;;;;;0.20;0.20;;;;;;;16.15;100.00;97343.09;5098568;27;20126;-76
2022/10/02 01:07:53;;;;;;;0.63;0.63;;;;;;;16.21;100.00;97352.53;5098930;27;20549;-76
2022/10/02 01:10:21;;;;;;;0.73;0.52;;;;;;;16.18;100.00;97342.84;5115449;27;20080;-76
2022/10/02 01:12:48;;;;;;;0.98;0.65;;;;;;;16.19;100.00;97346.41;5115734;27;20026;-76
2022/10/02 01:15:17;;;;;;;1.55;0.63;;;;;;;16.19;100.00;97338.31;5098244;27;20478;-76
2022/10/02 01:17:43;;;;;;;0.55;0.47;;;;;;;16.18;100.00;97332.03;5115610;27;20064;-77
2022/10/02 01:20:16;;;;;;;2.08;0.25;;;;;;;16.27;100.00;97342.03;5115569;27;20015;-76
2022/10/02 01:23:14;;;;;;;0.00;0.00;;;;;;;16.27;100.00;97349.28;5099033;27;20496;-76
2022/10/02 01:25:40;;;;;;;0.28;0.28;;;;;;;16.28;100.00;97354.53;5112068;28;20027;-76
2022/10/02 01:28:06;;;;;;;0.30;0.30;;;;;;;16.30;100.00;97343.63;5128902;27;20034;-76
2022/10/02 01:30:34;;;;;;;0.10;0.10;;;;;;;16.31;100.00;97337.22;5115279;27;20027;-76
2022/10/02 01:33:02;;;;;;;0.60;0.20;;;;;;;16.33;100.00;97335.25;5115483;27;20023;-76
2022/10/02 01:35:32;;;;;;;0.25;0.25;;;;;;;16.36;100.00;97344.91;5098356;27;20083;-76
2022/10/02 01:38:01;;;;;;;0.30;0.30;;;;;;;16.29;100.00;97328.41;5098284;27;20046;-76
2022/10/02 01:40:29;;;;;;;0.15;0.15;;;;;;;16.20;100.00;97324.69;5097812;27;20035;-76
2022/10/02 01:43:20;;;;;;;0.98;0.13;;;;;;;16.20;100.00;97326.53;5098056;27;20112;-76
2022/10/02 01:45:55;;;;;;;0.55;0.25;;;;;;;16.23;100.00;97339.75;5122057;27;20047;-77
2022/10/02 01:48:33;;;;;;;0.10;0.10;;;;;;;16.16;100.00;97342.13;5132414;27;20044;-77
2022/10/02 01:51:20;;;;;;;0.43;0.28;;;;;;;16.24;100.00;97357.66;5132910;27;20102;-77
2022/10/02 01:53:54;;;;;;;0.32;0.28;;;;;;;16.24;100.00;97368.47;5114111;27;20023;-77
2022/10/02 01:56:53;;;;;;;1.38;0.50;;;;;;;16.19;100.00;97385.03;5114312;27;20020;-77
2022/10/02 01:59:24;;;;;;;0.73;0.30;;;;;;;16.14;100.00;97391.84;5130542;27;20466;-77
2022/10/02 02:01:52;;;;;;;1.35;0.55;;;;;;;16.06;100.00;97392.47;5114398;27;20355;-77
2022/10/02 02:04:38;;;;;;;0.93;0.60;;;;;;;16.05;100.00;97395.31;5114908;27;20533;-77
2022/10/02 02:07:13;;;;;;;0.50;0.38;;;;;;;16.02;100.00;97398.28;5114410;27;20027;-76
2022/10/02 02:09:46;;;;;;;1.20;1.05;;;;;;;16.07;100.00;97406.84;5114760;27;20025;-76
2022/10/02 02:12:21;;;;;;;0.77;0.43;;;;;;;16.06;100.00;97418.59;5133047;27;20018;-75
2022/10/02 02:14:51;;;;;;;0.40;0.40;;;;;;;16.09;100.00;97423.72;5114488;27;20027;-76
2022/10/02 02:17:25;;;;;;;0.60;0.60;;;;;;;16.05;100.00;97422.31;5097400;27;20026;-76
2022/10/02 02:19:53;;;;;;;0.60;0.60;;;;;;;16.06;100.00;97419.47;5097093;27;20046;-76
2022/10/02 02:22:28;;;;;;;0.25;0.25;;;;;;;15.96;100.00;97428.50;5132524;27;20447;-76
2022/10/02 02:24:57;;;;;;;0.55;0.55;;;;;;;15.87;100.00;97438.25;5097002;27;20027;-77
2022/10/02 02:27:44;;;;;;;3.72;1.20;;;;;;;15.84;100.00;97433.09;5097088;27;20463;-77
2022/10/02 02:30:11;;;;;;;1.10;0.80;;;;;;;15.86;100.00;97432.97;5130841;27;20125;-77
2022/10/02 02:32:42;;;;;;;0.93;0.68;;;;;;;15.81;100.00;97430.63;5113887;27;20031;-77
2022/10/02 02:35:17;;;;;;;0.57;0.30;;;;;;;15.82;100.00;97436.88;5113893;27;20041;-77
2022/10/02 02:37:44;;;;;;;1.00;0.50;;;;;;;15.79;100.00;97442.53;5113919;27;20055;-77
2022/10/02 02:40:16;;;;;;;0.22;0.22;;;;;;;15.82;100.00;97443.16;5113641;27;20105;-76
2022/10/02 02:42:50;;;;;;;2.90;0.75;;;;;;;15.77;100.00;97444.53;5113993;27;20102;-77
2022/10/02 02:45:20;;;;;;;1.00;0.60;;;;;;;15.76;100.00;97442.81;5096546;27;20347;-77
2022/10/02 02:47:49;;;;;;;0.73;0.50;;;;;;;15.71;100.00;97449.47;5109750;27;20447;-76
2022/10/02 02:50:22;;;;;;;0.43;0.43;;;;;;;15.67;100.00;97455.22;5132009;27;20080;-76
2022/10/02 02:53:03;;;;;;;0.15;0.15;;;;;;;15.60;100.00;97454.03;5113950;27;20092;-77
2022/10/02 02:55:35;;;;;;;0.93;0.22;;;;;;;15.57;100.00;97455.13;5113517;27;20021;-76
2022/10/02 02:58:16;;;;;;;0.90;0.57;;;;;;;15.55;100.00;97467.03;5113685;27;20015;-77
2022/10/02 03:00:41;;;;;;;1.58;0.95;;;;;;;15.47;100.00;97464.09;5113720;27;20763;-77
2022/10/02 03:03:07;;;;;;;1.23;0.63;;;;;;;15.45;100.00;97466.91;5096757;27;20025;-77
2022/10/02 03:05:34;;;;;;;0.65;0.38;;;;;;;15.40;100.00;97468.28;5096437;27;20054;-77
2022/10/02 03:08:06;;;;;;;0.30;0.20;;;;;;;15.42;100.00;97479.78;5113634;27;20027;-77
2022/10/02 03:10:46;;;;;;;0.20;0.20;;;;;;;15.37;100.00;97480.19;5113533;27;20054;-78
2022/10/02 03:13:28;;;;;;;0.93;0.35;;;;;;;15.34;100.00;97480.44;5113249;27;20034;-77
2022/10/02 03:16:11;;;;;;;0.88;0.22;;;;;;;15.31;100.00;97478.00;5113227;27;20092;-77
2022/10/02 03:18:51;;;;;;;0.20;0.15;;;;;;;15.27;100.00;97495.38;5131602;27;20470;-77
2022/10/02 03:21:46;;;;;;;0.15;0.13;;;;;;;15.20;100.00;97491.47;5096312;28;20033;-76
2022/10/02 03:24:30;;;;;;;1.92;0.80;;;;;;;15.11;100.00;97493.06;5130572;28;20376;-77
2022/10/02 03:27:26;;;;;;;0.82;0.52;;;;;;;15.06;100.00;97498.00;5113353;28;20026;-77
2022/10/02 03:29:57;;;;;;;0.50;0.50;;;;;;;15.04;100.00;97493.72;5067291;28;20558;-77
2022/10/02 03:32:24;;;;;;;0.60;0.25;;;;;;;15.00;100.00;97495.78;5096182;28;20038;-77
2022/10/02 03:34:49;;;;;;;0.80;0.73;;;;;;;15.00;100.00;97514.66;5096119;28;20490;-77
2022/10/02 03:37:16;;;;;;;18.10;1.27;;;;;;;14.95;100.00;97505.22;5096281;28;20111;-77
2022/10/02 03:39:43;;;;;;;1.08;0.70;;;;;;;14.97;100.00;97531.06;5131431;28;20106;-77
2022/10/02 03:42:11;;;;;;;0.68;0.50;;;;;;;14.92;100.00;97527.03;5113506;28;20019;-77
2022/10/02 03:44:36;;;;;;;0.75;0.68;;;;;;;14.94;100.00;97527.75;5113021;28;20134;-77
2022/10/02 03:47:02;;;;;;;1.15;0.55;;;;;;;14.93;100.00;97539.47;5113145;28;20098;-78
2022/10/02 03:49:27;;;;;;;0.95;0.90;;;;;;;14.92;100.00;97532.41;5131375;28;20019;-76
2022/10/02 03:51:53;;;;;;;0.60;0.60;;;;;;;14.87;100.00;97529.19;5113066;28;20031;-77
2022/10/02 03:54:19;;;;;;;0.30;0.30;;;;;;;14.88;100.00;97537.19;5113371;28;20023;-76
2022/10/02 03:56:55;;;;;;;0.73;0.38;;;;;;;14.90;100.00;97535.22;5096048;28;20031;-77
2022/10/02 03:59:47;;;;;;;1.08;0.40;;;;;;;14.85;100.00;97545.50;5096071;28;20403;-76
2022/10/02 04:02:40;;;;;;;0.38;0.35;;;;;;;14.74;100.00;97534.69;5128912;28;20039;-76
2022/10/02 04:05:24;;;;;;;4.55;1.80;;;;;;;14.73;100.00;97546.47;5108841;28;20460;-76
2022/10/02 04:07:54;;;;;;;0.50;0.28;;;;;;;14.67;100.00;97532.63;5113028;28;20402;-76
2022/10/02 04:10:36;;;;;;;1.40;0.68;;;;;;;14.59;100.00;97533.22;5113009;28;20118;-76
2022/10/02 04:13:36;;;;;;;0.45;0.45;;;;;;;14.61;100.00;97550.13;5095900;28;20065;-76
2022/10/02 04:16:04;;;;;;;1.15;0.52;;;;;;;14.58;100.00;97551.19;5128790;28;20508;-77
2022/10/02 04:18:35;;;;;;;0.80;0.52;;;;;;;14.58;100.00;97555.75;5098221;27;20473;-76
2022/10/02 04:21:08;;;;;;;0.30;0.30;;;;;;;14.51;100.00;97558.06;5116361;27;20042;-76
2022/10/02 04:23:41;;;;;;;0.20;0.10;;;;;;;14.42;100.00;97555.22;5116708;27;20038;-76
2022/10/02 04:26:15;;;;;;;7.88;0.65;;;;;;;14.46;100.00;97546.75;5099574;27;20074;-76
2022/10/02 04:28:53;;;;;;;0.82;0.63;;;;;;;14.49;100.00;97561.81;5133410;27;20051;-76
2022/10/02 04:31:19;;;;;;;0.80;0.70;;;;;;;14.49;100.00;97553.75;5126805;27;20019;-77
2022/10/02 04:33:44;;;;;;;0.13;0.13;;;;;;;14.53;100.00;97564.16;5099220;27;20595;-76
2022/10/02 04:36:19;;;;;;;0.95;0.80;;;;;;;14.67;100.00;97579.25;5116139;27;20019;-76
2022/10/02 04:38:51;;;;;;;0.30;0.30;;;;;;;14.77;100.00;97587.44;5099235;27;20050;-76
2022/10/02 04:41:37;;;;;;;0.80;0.80;;;;;;;14.81;100.00;97600.56;5134633;27;20094;-76
2022/10/02 04:44:07;;;;;;;2.38;1.52;;;;;;;14.88;100.00;97604.50;5119468;27;20285;-77
2022/10/02 04:46:42;;;;;;;1.20;0.68;;;;;;;14.88;100.00;97620.66;5134696;27;20114;-76
2022/10/02 04:49:13;;;;;;;1.58;0.43;;;;;;;14.90;100.00;97631.31;5134035;27;20035;-76
2022/10/02 04:51:47;;;;;;;1.27;1.05;;;;;;;14.88;100.00;97622.50;5134315;27;20080;-76
2022/10/02 04:54:43;;;;;;;1.38;1.13;;;;;;;14.84;100.00;97624.56;5116146;27;20027;-76
2022/10/02 04:57:08;;;;;;;0.30;0.28;;;;;;;14.75;100.00;97617.22;5134131;27;20490;-77
2022/10/02 04:59:46;;;;;;;0.52;0.52;;;;;;;14.83;100.00;97630.91;5134181;27;20023;-77
2022/10/02 05:02:39;;;;;;;0.75;0.55;;;;;;;14.86;100.00;97621.78;5134123;27;20031;-77
2022/10/02 05:05:08;;;;;;;1.60;1.50;;;;;;;14.97;100.00;97633.41;5115233;27;20502;-77
2022/10/02 05:07:44;;;;;;;0.60;0.60;;;;;;;15.14;100.00;97646.41;5134291;27;20033;-77
2022/10/02 05:10:29;;;;;;;0.47;0.47;;;;;;;15.28;100.00;97655.25;5116061;27;20023;-77
2022/10/02 05:13:09;;;;;;;2.55;0.73;;;;;;;16.11;100.00;97686.25;5135253;27;20375;-77
2022/10/02 05:15:41;;;;;;;0.85;0.60;;;;;;;16.16;100.00;97662.44;5132902;27;20031;-77
2022/10/02 05:18:12;;;;;;;0.40;0.40;;;;;;;15.43;100.00;97624.38;5134166;27;20019;-77
2022/10/02 05:20:56;;;;;;;0.45;0.45;;;;;;;15.41;100.00;97613.69;5115846;27;20031;-78
2022/10/02 05:23:40;;;;;;;0.80;0.70;;;;;;;15.54;100.00;97621.69;5133896;27;20027;-79
2022/10/02 05:26:15;;;;;;;1.13;0.80;;;;;;;15.84;100.00;97619.22;5116564;27;20367;-79
2022/10/02 05:29:17;;;;;;;0.55;0.22;;;;;;;16.27;100.00;97627.31;5130391;27;20071;-78
2022/10/02 05:32:01;;;;;;;0.17;0.17;;;;;;;16.73;100.00;97608.94;5131029;27;20103;-76
2022/10/02 05:34:56;;;;;;;0.32;0.32;;;;;;;18.14;100.00;97609.91;5131140;27;20479;-80
2022/10/02 05:37:53;;;;;;;0.60;0.43;;;;;;;17.82;100.00;97572.22;5121191;27;20428;-80
2022/10/02 05:40:38;;;;;;;2.50;0.77;;;;;;;17.22;100.00;97556.91;5131154;27;20480;-89
2022/10/02 05:43:12;;;;;;;0.35;0.35;;;;;;;17.36;100.00;97563.78;5107707;27;20027;-89
2022/10/02 05:45:49;;;;;;;0.40;0.40;;;;;;;17.26;100.00;97563.75;5102256;27;20414;-80
2022/10/02 05:48:19;;;;;;;1.42;1.02;;;;;;;17.38;100.00;97580.72;5112332;27;20487;-79
2022/10/02 05:50:48;;;;;;;4.32;1.75;;;;;;;17.96;100.00;97594.47;5112300;27;20038;-78
2022/10/02 05:53:31;;;;;;;1.73;1.08;;;;;;;17.86;100.00;97579.06;5112041;27;20159;-78
2022/10/02 05:56:01;;;;;;;;;;;;;;;17.58;100.00;97569.03;5095711;27;20034;-77
2022/10/02 05:58:57;;;;;;;2.47;1.75;;;;;;;18.48;100.00;97569.72;5129165;27;19954;-77
2022/10/02 06:01:33;;;;;;;0.98;0.60;;;;;;;19.74;100.00;97582.84;5130322;27;20033;-77
2022/10/02 06:04:15;;;;;;;2.47;1.52;;;;;;;22.18;100.00;97586.47;5112085;27;20027;-77
2022/10/02 06:06:43;;;;;;;;;;;;;;;24.02;89.32;97565.53;5095519;27;20544;-77
2022/10/02 06:09:16;;;;;;;0.38;0.35;;;;;;;24.63;79.41;97550.97;5111727;27;19919;-77
2022/10/02 06:11:47;;;;;;;0.20;0.20;;;;;;;24.76;76.35;97525.75;5111385;27;20027;-78
2022/10/02 06:14:54;;;;;;;1.77;0.57;;;;;;;26.36;70.98;97522.19;5111844;27;20019;-78
2022/10/02 06:17:33;;;;;;;1.80;1.02;;;;;;;27.28;65.24;97505.75;5084482;27;20130;-78
2022/10/02 06:20:03;;;;;;;1.05;1.00;;;;;;;28.36;60.10;97490.22;5147238;27;20063;-82
2022/10/02 06:22:33;;;;;;;1.55;1.40;;;;;;;29.03;57.86;97486.53;5095733;27;20475;-83
2022/10/02 06:25:05;;;;;;;2.90;1.05;;;;;;;29.88;56.29;97475.38;5112116;27;20030;-81
2022/10/02 06:27:30;;;;;;;;;;;;;;;27.21;59.64;97472.72;5113110;27;20034;-81
2022/10/02 06:30:00;;;;;;;0.98;0.88;;;;;;;28.05;60.47;97476.19;5111842;27;19925;-79
2022/10/02 06:32:47;;;;;;;;;;;;;;;;;;;;;
2022/10/02 06:35:15;;;;;;;1.23;1.05;;;;;;;25.90;63.92;97427.59;5064072;27;20066;-92
2022/10/02 06:37:49;;;;;;;2.08;1.35;;;;;;;26.02;66.19;97499.22;5103755;27;20027;-90
2022/10/02 06:40:37;;;;;;;3.33;1.27;;;;;;;26.68;63.93;97487.03;5116519;27;20027;-90
2022/10/02 06:43:27;;;;;;;1.10;0.52;;;;;;;27.46;60.10;97470.38;5117132;27;20030;-89
2022/10/02 06:45:59;;;;;;;1.13;1.02;;;;;;;27.81;60.22;97490.44;5099849;28;20038;-91
2022/10/02 06:48:57;;;;;;;0.52;0.52;;;;;;;29.24;56.55;97477.22;5115242;28;20479;-92
2022/10/02 06:51:49;;;;;;;1.23;0.70;;;;;;;30.91;50.53;97460.34;5116001;28;20028;-94
2022/10/02 06:54:40;;;;;;;0.10;0.10;;;;;;;30.64;47.32;97431.22;5134019;27;20030;-91
2022/10/02 06:57:24;;;;;;;0.20;0.20;;;;;;;31.59;47.10;97454.84;5116857;28;20563;-92
2022/10/02 07:00:15;;;;;;;0.77;0.57;;;;;;;30.99;45.39;97426.06;5135440;27;20452;-92
2022/10/02 07:03:05;;;;;;;0.75;0.43;;;;;;;28.34;46.30;97433.69;5100088;28;20062;-93
2022/10/02 07:05:41;;;;;;;0.60;0.45;;;;;;;29.52;47.65;97442.81;5128229;27;20379;-81
2022/10/02 07:08:37;;;;;;;0.52;0.50;;;;;;;30.69;44.84;97456.25;5129343;27;20030;-81
2022/10/02 07:11:24;;;;;;;0.10;0.10;;;;;;;31.60;42.26;97451.84;5129405;27;20102;-80
2022/10/02 07:14:26;;;;;;;0.28;0.20;;;;;;;32.00;41.91;97451.34;5128904;27;20030;-80
2022/10/02 07:16:56;;;;;;;;;;;;;;;30.61;40.12;97418.69;5129357;27;20594;-80
2022/10/02 07:20:02;;;;;;;0.00;0.00;;;;;;;31.24;39.64;97431.56;5110735;28;20494;-81
2022/10/02 07:22:31;;;;;;;0.70;0.52;;;;;;;31.16;35.41;97403.13;5110920;28;20130;-80
2022/10/02 07:25:18;;;;;;;0.38;0.20;;;;;;;31.46;37.82;97428.16;5128682;28;20406;-81
2022/10/02 07:27:54;;;;;;;0.10;0.10;;;;;;;32.12;35.23;97414.38;5127259;28;20035;-80
2022/10/02 07:30:19;;;;;;;0.15;0.15;;;;;;;32.48;36.34;97423.66;5093648;28;20154;-80
2022/10/02 07:33:05;;;;;;;0.52;0.47;;;;;;;32.00;34.98;97398.75;5110406;28;20121;-81
2022/10/02 07:35:47;;;;;;;0.38;0.10;;;;;;;31.56;36.34;97425.69;5127808;28;20512;-80
2022/10/02 07:38:42;;;;;;;0.68;0.50;;;;;;;32.62;36.97;97441.78;5093806;28;20023;-79
2022/10/02 07:41:32;;;;;;;0.25;0.20;;;;;;;33.11;34.44;97421.16;5115399;28;20061;-80
2022/10/02 07:44:16;;;;;;;0.10;0.10;;;;;;;33.52;30.84;97409.94;5110086;28;20031;-79
2022/10/02 07:47:18;;;;;;;2.95;0.80;;;;;;;33.33;30.30;97405.63;5093609;28;20535;-80
2022/10/02 07:49:55;;;;;;;0.10;0.10;;;;;;;32.15;32.39;97402.81;5110542;28;20030;-81
2022/10/02 07:52:33;;;;;;;0.35;0.17;;;;;;;30.49;35.47;97411.34;5093490;27;20857;-81
2022/10/02 07:55:14;;;;;;;0.10;0.10;;;;;;;31.14;33.57;97416.34;5113719;27;20462;-82
2022/10/02 07:57:45;;;;;;;1.08;0.30;;;;;;;31.78;32.05;97405.88;5132723;27;20394;-82
2022/10/02 08:00:14;;;;;;;4.55;0.88;;;;;;;31.71;32.90;97405.13;5126015;27;20071;-81
2022/10/02 08:03:00;;;;;;;0.20;0.20;;;;;;;31.40;32.30;97392.25;5097417;27;20031;-82
2022/10/02 08:05:37;;;;;;;0.00;0.00;;;;;;;31.45;32.64;97384.97;5114690;27;20023;-81
2022/10/02 08:08:10;;;;;;;0.20;0.20;;;;;;;30.44;32.03;97384.44;5099693;27;20123;-81
2022/10/02 08:10:38;;;;;;;0.13;0.13;;;;;;;31.23;31.69;97394.78;5114326;27;20038;-80
2022/10/02 08:13:20;;;;;;;0.40;0.20;;;;;;;30.66;30.50;97378.50;5096876;27;20035;-82
2022/10/02 08:15:46;;;;;;;;;;;;;;;29.96;32.51;97388.75;5098052;27;20068;-82
2022/10/02 08:18:29;;;;;;;0.17;0.15;;;;;;;30.42;32.99;97389.34;5130956;27;19926;-82
2022/10/02 08:20:55;;;;;;;5.70;1.20;;;;;;;30.39;33.78;97395.31;5097700;27;20035;-82
2022/10/02 08:23:26;;;;;;;4.45;1.75;;;;;;;30.99;31.44;97385.47;5113683;27;20034;-81
2022/10/02 08:26:06;;;;;;;1.80;1.10;;;;;;;32.01;30.29;97395.78;5114595;27;20027;-82
2022/10/02 08:29:08;;;;;;;4.82;1.40;;;;;;;32.30;29.21;97394.13;5114503;27;20043;-81
2022/10/02 08:31:34;;;;;;;2.63;0.60;;;;;;;32.54;28.29;97398.63;5132317;27;20479;-81
2022/10/02 08:34:15;;;;;;;0.70;0.70;;;;;;;32.38;29.39;97407.63;5097016;27;20332;-81
2022/10/02 08:37:19;;;;;;;6.93;1.58;;;;;;;32.48;29.25;97413.44;5127253;27;20064;-81
2022/10/02 08:40:12;;;;;;;1.58;1.13;;;;;;;31.68;30.68;97406.44;5097114;27;20472;-80
2022/10/02 08:42:56;;;;;;;3.47;1.00;;;;;;;33.03;28.50;97410.41;5148984;27;20485;-81
2022/10/02 08:45:40;;;;;;;2.13;0.90;;;;;;;32.40;28.41;97405.44;5113627;27;20403;-81
2022/10/02 08:48:49;;;;;;;2.05;1.23;;;;;;;33.18;27.84;97396.94;5120608;27;20543;-80
2022/10/02 08:51:24;;;;;;;12.82;2.10;;;;;;;33.97;27.06;97406.47;5047322;27;20047;-79
2022/10/02 08:54:08;;;;;;;1.35;0.93;;;;;;;33.28;26.83;97388.00;5132099;27;20452;-80
2022/10/02 08:56:52;;;;;;;1.05;0.75;;;;;;;32.74;27.44;97393.63;5131720;27;20444;-80
2022/10/02 08:59:27;;;;;;;3.50;0.70;;;;;;;32.46;28.05;97385.09;5112936;27;20047;-79
2022/10/02 09:02:01;;;;;;;11.52;1.50;;;;;;;32.89;27.50;97387.63;5130593;27;20035;-80
2022/10/02 09:04:48;;;;;;;0.95;0.50;;;;;;;32.15;28.03;97388.97;5112607;27;20175;-81
2022/10/02 09:08:08;;;;;;;2.20;0.90;;;;;;;32.52;27.87;97375.84;5113047;27;20498;-81
2022/10/02 09:11:09;;;;;;;0.82;0.60;;;;;;;29.72;30.72;97364.69;5060668;27;20447;-80
2022/10/02 09:13:41;;;;;;;2.13;1.05;;;;;;;29.76;30.61;97376.94;5114024;27;20030;-79
2022/10/02 09:16:10;;;;;;;2.67;0.93;;;;;;;28.13;31.58;97376.09;5113781;27;20081;-81
2022/10/02 09:18:50;;;;;;;0.80;0.70;;;;;;;27.10;34.64;97393.63;5095851;27;20459;-81
2022/10/02 09:21:17;;;;;;;4.35;2.00;;;;;;;26.51;37.09;97408.81;5095648;27;20046;-78
2022/10/02 09:24:30;;;;;;;3.13;0.88;;;;;;;27.00;34.36;97409.63;5129934;27;20122;-82
2022/10/02 09:27:29;;;;;;;3.72;1.20;;;;;;;26.01;37.78;97412.50;5071099;28;20026;-81
2022/10/02 09:30:32;;;;;;;0.70;0.65;;;;;;;26.70;35.67;97405.38;5068324;28;20048;-80
2022/10/02 09:33:16;;;;;;;2.60;0.95;;;;;;;26.95;35.97;97420.34;5065274;27;20509;-81
2022/10/02 09:36:07;;;;;;;14.02;3.10;;;;;;;28.15;34.59;97442.78;5094543;28;20024;-82
2022/10/02 09:39:14;;;;;;;8.82;2.47;;;;;;;28.73;33.82;97427.44;5106517;27;20413;-80
2022/10/02 09:42:09;;;;;;;1.75;1.30;;;;;;;27.26;34.86;97418.03;5030768;28;20124;-82
2022/10/02 09:44:55;;;;;;;1.52;1.10;;;;;;;26.97;36.20;97421.03;5016966;28;20491;-82
2022/10/02 09:47:36;;;;;;;5.75;1.27;;;;;;;26.54;36.19;97419.38;5087137;27;20035;-82
2022/10/02 09:50:35;;;;;;;14.07;2.22;;;;;;;25.62;37.66;97405.53;5100472;28;20036;-82
2022/10/02 09:53:25;;;;;;;2.67;0.98;;;;;;;25.32;39.27;97412.91;5094770;28;20024;-82
2022/10/02 09:56:11;;;;;;;1.73;1.63;;;;;;;26.27;37.67;97421.88;5112908;28;20024;-82
2022/10/02 09:59:08;;;;;;;1.65;1.27;;;;;;;28.95;32.96;97424.22;5122687;27;20027;-82
2022/10/02 10:01:58;;;;;;;3.15;1.20;;;;;;;29.70;32.67;97421.94;5077738;28;20565;-80
2022/10/02 10:04:46;;;;;;;1.67;1.10;;;;;;;30.81;30.02;97425.97;5094496;28;20106;-81
2022/10/02 10:07:34;;;;;;;1.63;1.05;;;;;;;31.51;29.29;97427.47;5094754;28;20031;-81
2022/10/02 10:10:18;;;;;;;0.85;0.80;;;;;;;33.70;27.57;97426.47;5109126;27;20015;-84
2022/10/02 10:13:11;;;;;;;2.25;1.50;;;;;;;33.94;27.23;97410.59;5112140;27;20031;-82
2022/10/02 10:16:21;;;;;;;5.38;2.05;;;;;;;34.48;26.67;97384.19;5095405;27;20466;-83
2022/10/02 10:19:04;;;;;;;1.10;0.90;;;;;;;33.63;26.13;97356.38;5069581;28;20101;-82
2022/10/02 10:21:47;;;;;;;2.85;0.63;;;;;;;31.44;27.12;97343.72;5131319;27;20100;-81
2022/10/02 10:24:32;;;;;;;1.50;1.10;;;;;;;31.79;27.68;97369.66;5110250;27;20509;-80
2022/10/02 10:27:35;;;;;;;2.63;0.95;;;;;;;31.75;27.56;97353.78;5087523;28;20028;-82
2022/10/02 10:30:20;;;;;;;1.45;0.90;;;;;;;31.50;27.28;97354.69;5084057;28;20063;-81
2022/10/02 10:33:05;;;;;;;1.20;0.80;;;;;;;32.46;25.93;97357.41;5109710;28;20115;-82
2022/10/02 10:36:04;;;;;;;0.70;0.70;;;;;;;31.51;26.70;97350.03;5112082;28;20031;-81
2022/10/02 10:39:05;;;;;;;0.47;0.43;;;;;;;31.05;27.44;97350.53;5120708;27;20036;-82
2022/10/02 10:41:56;;;;;;;1.60;0.60;;;;;;;31.16;28.19;97364.44;5069377;28;20137;-81
2022/10/02 10:44:37;;;;;;;1.15;0.85;;;;;;;31.64;28.08;97369.22;5102575;28;20032;-81
2022/10/02 10:47:21;;;;;;;1.65;0.70;;;;;;;30.94;28.54;97357.69;5119071;27;20139;-81
2022/10/02 10:50:03;;;;;;;27.85;20.08;;;;;;;31.36;28.87;97374.44;5117421;27;20516;-81
2022/10/02 10:52:28;;;;;;;1.17;1.00;;;;;;;29.10;29.67;97338.59;5096750;28;20024;-81
2022/10/02 10:55:45;;;;;;;3.28;1.15;;;;;;;29.97;28.53;97346.28;5118883;27;20024;-83
2022/10/02 10:58:32;;;;;;;4.05;1.20;;;;;;;32.02;27.46;97374.47;5084083;28;20039;-81
2022/10/02 11:01:07;;;;;;;2.75;0.80;;;;;;;32.07;26.12;97355.25;5109306;28;20023;-81
2022/10/02 11:03:51;;;;;;;1.23;0.93;;;;;;;32.72;26.70;97370.88;5114846;27;20442;-80
2022/10/02 11:06:44;;;;;;;6.00;0.85;;;;;;;34.21;25.38;97370.06;5125558;27;20519;-81
2022/10/02 11:09:25;;;;;;;1.40;1.02;;;;;;;33.72;24.82;97366.00;5100411;28;20111;-81
2022/10/02 11:11:56;;;;;;;;;;;;;;;32.82;25.46;97341.72;5076733;28;20042;-79
2022/10/02 11:14:42;;;;;;;3.20;0.60;;;;;;;34.35;24.53;97365.03;5099484;28;19951;-81
2022/10/02 11:17:30;;;;;;;3.60;1.83;;;;;;;35.48;24.51;97370.25;5089981;28;20418;-82
2022/10/02 11:20:14;;;;;;;1.38;0.95;;;;;;;34.64;24.25;97347.22;5076564;28;20027;-80
2022/10/02 11:22:55;;;;;;;0.55;0.55;;;;;;;33.35;25.05;97336.03;5121129;27;20035;-80
2022/10/02 11:25:59;;;;;;;1.48;1.20;;;;;;;34.69;24.71;97358.47;5098618;28;20027;-81
2022/10/02 11:28:46;;;;;;;1.08;0.70;;;;;;;33.80;25.11;97339.78;5114013;28;20047;-81
2022/10/02 11:31:34;;;;;;;1.98;0.90;;;;;;;34.60;24.23;97354.41;5113221;28;20410;-81
2022/10/02 11:34:19;;;;;;;2.15;1.35;;;;;;;35.46;23.20;97361.34;5131345;28;20490;-81
2022/10/02 11:36:56;;;;;;;1.42;0.80;;;;;;;34.53;23.82;97339.78;5129315;28;20486;-80
2022/10/02 11:39:35;;;;;;;1.08;0.70;;;;;;;35.30;23.39;97349.13;5112560;28;20110;-81
2022/10/02 11:42:10;;;;;;;2.15;1.30;;;;;;;34.73;23.92;97340.16;5112361;28;20050;-81
2022/10/02 11:44:57;;;;;;;0.95;0.90;;;;;;;35.04;23.74;97340.66;5113484;28;20050;-82
2022/10/02 11:47:34;;;;;;;0.85;0.68;;;;;;;35.97;23.77;97351.69;5112435;28;20083;-82
2022/10/02 11:50:22;;;;;;;0.75;0.75;;;;;;;35.88;23.61;97353.25;5130579;28;20015;-81
2022/10/02 11:53:05;;;;;;;1.52;1.05;;;;;;;34.87;23.88;97335.09;5129322;28;20473;-82
2022/10/02 11:55:48;;;;;;;2.20;1.52;;;;;;;34.95;24.20;97336.63;5131155;28;20482;-82
2022/10/02 11:58:40;;;;;;;0.80;0.80;;;;;;;33.82;25.57;97337.59;5095646;28;20070;-81
2022/10/02 12:01:16;;;;;;;1.70;0.80;;;;;;;32.27;26.82;97327.28;5131685;28;20109;-81
2022/10/02 12:04:03;;;;;;;1.38;0.75;;;;;;;30.41;28.87;97337.09;5112834;28;20030;-81
2022/10/02 12:06:44;;;;;;;0.80;0.80;;;;;;;31.47;28.48;97357.91;5107688;28;20474;-82
2022/10/02 12:09:37;;;;;;;3.25;0.70;;;;;;;30.61;29.64;97349.66;5131094;28;20100;-82
2022/10/02 12:12:35;;;;;;;1.65;0.70;;;;;;;28.95;31.25;97346.25;5112229;28;20026;-81
2022/10/02 12:15:16;;;;;;;0.77;0.65;;;;;;;28.58;31.80;97344.16;5130767;28;20533;-82
2022/10/02 12:17:53;;;;;;;0.75;0.65;;;;;;;28.96;31.48;97358.97;5095611;28;20027;-81
2022/10/02 12:26:59;;;;;;;1.67;1.30;;;;;;;28.49;31.96;97358.13;5115199;28;20481;-82
2022/10/02 12:29:42;;;;;;;0.98;0.60;;;;;;;27.88;31.42;97340.91;5068608;28;1255005;-82
2022/10/02 12:32:11;;;;;;;1.67;0.90;;;;;;;28.18;32.43;97348.81;5112984;28;20031;-82
2022/10/02 12:35:06;;;;;;;5.40;1.92;;;;;;;30.25;31.16;97374.34;5096081;28;20042;-81
2022/10/02 12:37:39;;;;;;;4.70;2.60;;;;;;;30.36;30.70;97357.06;5131475;28;20034;-81
2022/10/02 12:40:30;;;;;;;1.55;0.90;;;;;;;30.98;29.28;97363.56;5115985;27;20030;-81